Time;durP1;ratioP1;P1;durP2;ratioP2;P2;SDS_P1;SDS_P2;PMS_P1;PMS_P2;Temp;Humidity;BMP_temperature;BMP_pressure;BME280_temperature;BME280_humidity;BME280_pressure;Samples;Min_cycle;Max_cycle;Signal;HPM_P1;HPM_P2
2022/09/11 00:01:50;;;;;;;5.15;4.65;;;15.90;96.60;;;;;;5031557;28;20057;-68
2022/09/11 00:04:15;;;;;;;6.47;5.07;;;15.90;96.60;;;;;;5030559;28;20503;-68
2022/09/11 00:06:42;;;;;;;5.03;4.13;;;15.90;96.70;;;;;;5034531;28;20443;-69
2022/09/11 00:09:08;;;;;;;5.95;4.35;;;15.90;96.80;;;;;;5037097;28;20556;-69
2022/09/11 00:11:42;;;;;;;5.00;4.30;;;15.90;97.00;;;;;;5037190;28;20049;-68
2022/09/11 00:14:12;;;;;;;5.80;4.65;;;15.80;97.10;;;;;;5031582;28;20037;-68
2022/09/11 00:16:40;;;;;;;7.63;5.00;;;15.80;97.10;;;;;;5035663;28;20095;-68
2022/09/11 00:19:10;;;;;;;6.10;4.93;;;15.80;97.00;;;;;;5031141;28;20873;-68
2022/09/11 00:21:36;;;;;;;5.70;4.35;;;15.80;97.00;;;;;;5036577;28;20032;-68
2022/09/11 00:24:02;;;;;;;6.45;4.40;;;15.70;97.10;;;;;;5036262;28;20067;-69
2022/09/11 00:26:28;;;;;;;6.07;4.53;;;15.70;97.10;;;;;;5042137;28;20058;-68
2022/09/11 00:28:54;;;;;;;7.00;4.55;;;15.70;97.30;;;;;;5040873;28;20119;-68
2022/09/11 00:31:24;;;;;;;5.80;4.10;;;15.70;97.30;;;;;;5037582;28;20033;-69
2022/09/11 00:33:50;;;;;;;6.93;4.55;;;15.60;97.40;;;;;;5041237;28;20036;-68
2022/09/11 00:36:23;;;;;;;9.23;4.65;;;15.60;97.40;;;;;;5037438;28;20781;-68
2022/09/11 00:38:49;;;;;;;5.93;4.07;;;15.60;97.40;;;;;;5037362;28;20025;-68
2022/09/11 00:41:21;;;;;;;5.82;4.20;;;15.60;97.30;;;;;;5034399;28;20108;-69
2022/09/11 00:44:04;;;;;;;4.57;3.88;;;15.60;97.30;;;;;;5025271;28;20025;-69
2022/09/11 00:46:52;;;;;;;6.13;4.03;;;15.60;97.30;;;;;;5034189;28;20029;-68
2022/09/11 00:49:37;;;;;;;5.55;4.00;;;15.60;97.40;;;;;;5039868;28;20297;-68
2022/09/11 00:52:10;;;;;;;5.15;4.05;;;15.60;97.40;;;;;;5038501;28;20436;-68
2022/09/11 00:54:50;;;;;;;5.97;4.05;;;15.50;97.40;;;;;;5041776;28;20025;-68
2022/09/11 00:57:20;;;;;;;7.38;4.18;;;15.50;97.50;;;;;;5034931;28;20029;-68
2022/09/11 00:59:48;;;;;;;7.65;5.05;;;15.50;97.60;;;;;;5033307;28;20174;-68
2022/09/11 01:02:18;;;;;;;5.50;4.50;;;15.50;97.70;;;;;;5036095;28;20151;-68
2022/09/11 01:04:44;;;;;;;5.03;3.72;;;15.50;97.80;;;;;;5041761;28;20052;-69
2022/09/11 01:07:12;;;;;;;5.68;3.88;;;15.50;97.80;;;;;;5040320;28;20111;-67
2022/09/11 01:09:38;;;;;;;4.90;4.20;;;15.50;97.90;;;;;;5039764;28;20017;-68
2022/09/11 01:12:35;;;;;;;4.70;4.00;;;15.50;97.80;;;;;;5033409;28;20563;-69
2022/09/11 01:15:06;;;;;;;4.07;3.70;;;15.50;97.80;;;;;;5035331;28;20410;-68
2022/09/11 01:17:42;;;;;;;5.90;4.05;;;15.50;97.70;;;;;;5035633;28;20443;-68
2022/09/11 01:20:30;;;;;;;4.05;3.60;;;15.40;97.60;;;;;;5031433;28;20032;-68
2022/09/11 01:23:09;;;;;;;4.10;3.70;;;15.40;97.60;;;;;;5037366;28;20033;-69
2022/09/11 01:25:58;;;;;;;3.90;3.58;;;15.40;97.50;;;;;;5037705;28;20036;-68
2022/09/11 01:28:51;;;;;;;5.15;4.05;;;15.40;97.50;;;;;;5053687;28;20048;-68
2022/09/11 01:31:22;;;;;;;5.78;4.90;;;15.30;97.40;;;;;;5022143;28;20046;-68
2022/09/11 01:33:59;;;;;;;5.22;4.13;;;15.30;97.40;;;;;;5036589;28;20120;-69
2022/09/11 01:36:30;;;;;;;5.88;3.72;;;15.30;97.30;;;;;;5035368;28;20048;-67
2022/09/11 01:39:04;;;;;;;4.72;3.78;;;15.20;97.10;;;;;;5030733;28;20172;-68
2022/09/11 01:41:44;;;;;;;4.53;3.83;;;15.20;97.10;;;;;;5037119;28;20024;-68
2022/09/11 01:44:34;;;;;;;3.60;3.30;;;15.10;97.10;;;;;;5036729;28;20029;-68
2022/09/11 01:47:05;;;;;;;6.18;3.88;;;15.10;97.00;;;;;;5035727;28;20651;-68
2022/09/11 01:49:35;;;;;;;4.03;3.63;;;15.10;97.10;;;;;;5040530;28;20063;-68
2022/09/11 01:52:08;;;;;;;5.07;3.95;;;15.00;97.10;;;;;;5034102;28;20037;-69
2022/09/11 01:54:41;;;;;;;4.38;3.58;;;15.00;97.10;;;;;;5037470;28;20033;-68
2022/09/11 01:57:24;;;;;;;5.57;3.90;;;15.00;97.20;;;;;;5046597;28;20490;-68
2022/09/11 01:59:57;;;;;;;5.32;4.00;;;15.00;97.20;;;;;;5035513;28;20034;-68
2022/09/11 02:02:37;;;;;;;5.75;4.60;;;15.00;97.20;;;;;;5037525;28;20040;-68
2022/09/11 02:05:24;;;;;;;6.72;4.25;;;15.00;97.20;;;;;;5035276;28;20037;-68
2022/09/11 02:08:22;;;;;;;5.68;3.92;;;14.90;97.30;;;;;;5035620;28;20025;-68
2022/09/11 02:10:53;;;;;;;5.18;3.90;;;14.90;97.30;;;;;;5032808;28;20114;-68
2022/09/11 02:13:44;;;;;;;4.95;3.22;;;15.00;97.40;;;;;;5033250;28;20033;-68
2022/09/11 02:16:28;;;;;;;4.68;4.05;;;14.90;97.40;;;;;;5033720;28;20762;-68
2022/09/11 02:19:09;;;;;;;4.85;3.63;;;15.00;97.30;;;;;;5036929;28;20024;-68
2022/09/11 02:21:36;;;;;;;4.22;3.80;;;14.90;97.60;;;;;;5052706;28;20389;-68
2022/09/11 02:24:02;;;;;;;5.50;3.97;;;14.90;97.30;;;;;;5035115;28;20546;-68
2022/09/11 02:26:32;;;;;;;5.50;3.67;;;14.90;97.40;;;;;;5037962;28;20029;-69
2022/09/11 02:28:58;;;;;;;4.75;3.90;;;14.90;97.40;;;;;;5033023;28;20021;-68
2022/09/11 02:31:25;;;;;;;3.90;3.10;;;14.90;97.40;;;;;;5033421;28;20025;-68
2022/09/11 02:33:50;;;;;;;4.00;3.58;;;14.90;97.40;;;;;;5034287;28;20056;-68
2022/09/11 02:36:27;;;;;;;4.25;3.70;;;14.90;97.40;;;;;;5031914;28;20135;-68
2022/09/11 02:38:56;;;;;;;4.90;3.83;;;14.90;97.50;;;;;;5035994;28;20409;-68
2022/09/11 02:41:32;;;;;;;4.15;3.75;;;14.90;97.40;;;;;;5036505;28;20025;-67
2022/09/11 02:44:18;;;;;;;6.05;3.83;;;14.80;97.40;;;;;;5036608;28;20033;-68
2022/09/11 02:47:04;;;;;;;3.90;3.42;;;14.80;97.30;;;;;;5030984;28;20053;-68
2022/09/11 02:49:43;;;;;;;7.35;4.22;;;14.80;97.40;;;;;;5033284;28;20021;-68
2022/09/11 02:52:56;;;;;;;7.60;3.75;;;14.80;97.40;;;;;;5030043;28;20861;-68
2022/09/11 02:55:59;;;;;;;3.70;3.33;;;14.80;97.40;;;;;;5038375;28;20037;-68
2022/09/11 02:58:32;;;;;;;4.22;3.33;;;14.80;97.40;;;;;;5034648;28;20025;-68
2022/09/11 03:00:59;;;;;;;4.15;3.72;;;14.70;97.40;;;;;;5034419;28;20516;-68
2022/09/11 03:03:25;;;;;;;5.40;3.92;;;14.70;97.40;;;;;;5036453;28;20519;-69
2022/09/11 03:05:52;;;;;;;4.55;3.42;;;14.70;97.40;;;;;;5034552;28;20036;-68
2022/09/11 03:08:19;;;;;;;4.43;3.30;;;14.70;97.50;;;;;;5033541;28;20516;-68
2022/09/11 03:10:45;;;;;;;4.80;4.18;;;14.70;97.50;;;;;;5031214;28;20036;-69
2022/09/11 03:13:13;;;;;;;5.22;3.53;;;14.70;97.50;;;;;;5029314;28;20033;-68
2022/09/11 03:15:42;;;;;;;4.03;2.80;;;14.60;97.50;;;;;;5039642;28;20029;-68
2022/09/11 03:18:09;;;;;;;4.13;3.40;;;14.60;97.50;;;;;;5031272;28;20060;-68
2022/09/11 03:20:35;;;;;;;4.05;3.55;;;14.60;97.50;;;;;;5038548;28;20036;-68
2022/09/11 03:23:02;;;;;;;4.15;3.30;;;14.60;97.50;;;;;;5033112;28;20033;-68
2022/09/11 03:25:28;;;;;;;3.78;3.25;;;14.60;97.50;;;;;;5034427;28;20925;-69
2022/09/11 03:27:57;;;;;;;7.63;3.67;;;14.60;97.50;;;;;;5030651;28;20029;-68
2022/09/11 03:30:25;;;;;;;3.78;3.13;;;14.60;97.50;;;;;;5030699;28;20045;-68
2022/09/11 03:32:51;;;;;;;3.88;3.47;;;14.60;97.50;;;;;;5031741;28;20412;-68
2022/09/11 03:35:16;;;;;;;3.20;2.85;;;14.50;97.40;;;;;;5039093;28;20025;-68
2022/09/11 03:37:43;;;;;;;6.90;3.40;;;14.50;97.40;;;;;;5039765;28;20451;-68
2022/09/11 03:40:09;;;;;;;3.35;3.03;;;14.50;97.40;;;;;;5034488;28;20040;-68
2022/09/11 03:42:35;;;;;;;4.70;3.40;;;14.50;97.40;;;;;;5034887;28;20559;-68
2022/09/11 03:45:02;;;;;;;4.05;3.20;;;14.50;97.60;;;;;;5031149;28;20084;-68
2022/09/11 03:47:28;;;;;;;5.50;3.45;;;14.50;97.70;;;;;;5031702;28;20033;-68
2022/09/11 03:49:54;;;;;;;4.70;3.42;;;14.60;97.90;;;;;;5028415;28;20829;-68
2022/09/11 03:52:21;;;;;;;4.75;3.70;;;14.60;98.30;;;;;;5033862;28;20033;-68
2022/09/11 03:54:48;;;;;;;6.78;4.80;;;14.80;98.40;;;;;;5040754;28;20148;-68
2022/09/11 03:57:15;;;;;;;5.78;4.57;;;14.90;98.70;;;;;;5040566;28;20168;-68
2022/09/11 03:59:40;;;;;;;9.02;6.95;;;14.90;98.90;;;;;;5041575;28;20942;-68
2022/09/11 04:02:06;;;;;;;9.90;7.72;;;15.00;99.10;;;;;;5033633;28;20409;-68
2022/09/11 04:04:32;;;;;;;12.13;8.73;;;15.10;99.20;;;;;;5042687;28;20055;-68
2022/09/11 04:06:58;;;;;;;12.68;8.05;;;15.20;99.30;;;;;;5036400;28;20042;-68
2022/09/11 04:09:26;;;;;;;11.68;8.88;;;15.30;99.20;;;;;;5034713;28;20400;-68
2022/09/11 04:11:52;;;;;;;10.40;7.97;;;15.40;99.20;;;;;;5039446;28;20134;-69
2022/09/11 04:14:22;;;;;;;12.40;9.10;;;15.40;99.10;;;;;;5037831;28;20028;-69
2022/09/11 04:16:51;;;;;;;12.27;8.65;;;15.50;99.20;;;;;;5040252;28;20028;-68
2022/09/11 04:19:17;;;;;;;13.02;8.10;;;15.50;99.20;;;;;;5038083;28;20026;-69
2022/09/11 04:21:44;;;;;;;10.40;8.40;;;15.50;99.20;;;;;;5037210;28;20789;-68
2022/09/11 04:24:10;;;;;;;12.60;8.30;;;15.60;99.10;;;;;;5036281;28;20032;-68
2022/09/11 04:26:36;;;;;;;10.63;7.55;;;15.70;99.00;;;;;;5035505;28;20586;-69
2022/09/11 04:29:11;;;;;;;12.13;8.88;;;15.70;98.90;;;;;;5032180;28;20711;-69
2022/09/11 04:31:40;;;;;;;9.60;7.55;;;15.70;98.80;;;;;;5040976;28;20173;-69
2022/09/11 04:34:08;;;;;;;9.35;7.53;;;15.70;98.60;;;;;;5035813;28;20034;-68
2022/09/11 04:36:36;;;;;;;11.82;7.60;;;15.70;98.60;;;;;;5038907;28;20120;-69
2022/09/11 04:39:02;;;;;;;10.15;6.60;;;15.80;98.50;;;;;;5037291;28;20036;-69
2022/09/11 04:41:29;;;;;;;9.02;7.15;;;15.80;98.40;;;;;;5041131;28;20064;-69
2022/09/11 04:44:01;;;;;;;7.82;6.05;;;15.80;98.30;;;;;;5032916;28;20079;-68
2022/09/11 04:46:28;;;;;;;8.73;6.63;;;15.80;98.20;;;;;;5041683;28;20025;-68
2022/09/11 04:48:58;;;;;;;11.55;7.95;;;15.80;98.00;;;;;;5034042;28;20025;-69
2022/09/11 04:51:26;;;;;;;9.73;6.82;;;15.80;98.00;;;;;;5041516;28;20017;-68
2022/09/11 04:53:56;;;;;;;10.73;7.97;;;15.80;97.90;;;;;;5042029;28;20029;-68
2022/09/11 04:56:31;;;;;;;10.70;6.88;;;15.80;97.80;;;;;;5038067;28;20047;-68
2022/09/11 04:59:00;;;;;;;8.17;6.77;;;15.80;97.70;;;;;;5036590;28;20678;-69
2022/09/11 05:01:29;;;;;;;10.75;7.75;;;15.80;97.70;;;;;;5040493;28;20606;-68
2022/09/11 05:04:00;;;;;;;7.78;6.38;;;15.80;97.70;;;;;;5033343;28;20021;-68
2022/09/11 05:06:29;;;;;;;8.43;6.38;;;15.80;97.60;;;;;;5042758;28;20132;-69
2022/09/11 05:09:01;;;;;;;9.52;6.53;;;15.90;97.70;;;;;;5038804;28;20031;-68
2022/09/11 05:11:29;;;;;;;10.20;6.30;;;15.90;97.70;;;;;;5037604;28;20033;-68
2022/09/11 05:14:00;;;;;;;9.85;5.70;;;15.90;97.60;;;;;;5038666;28;20423;-68
2022/09/11 05:16:29;;;;;;;9.73;6.82;;;16.00;97.50;;;;;;5043171;28;20029;-69
2022/09/11 05:18:57;;;;;;;8.32;5.82;;;16.00;97.40;;;;;;5035708;28;20025;-69
2022/09/11 05:21:25;;;;;;;12.05;7.18;;;16.00;97.40;;;;;;5036360;28;20049;-69
2022/09/11 05:23:54;;;;;;;11.30;6.70;;;16.10;97.50;;;;;;5033042;28;20021;-69
2022/09/11 05:26:26;;;;;;;12.30;7.28;;;16.10;97.50;;;;;;5039336;28;20468;-68
2022/09/11 05:28:57;;;;;;;9.25;6.25;;;16.10;97.60;;;;;;5043321;28;20028;-72
2022/09/11 05:31:24;;;;;;;10.68;6.68;;;16.10;97.60;;;;;;5056526;28;20521;-68
2022/09/11 05:33:52;;;;;;;12.13;7.18;;;16.10;97.70;;;;;;5038898;28;20032;-68
2022/09/11 05:36:18;;;;;;;14.52;8.32;;;16.10;97.70;;;;;;5037215;28;20564;-69
2022/09/11 05:38:44;;;;;;;16.80;8.32;;;16.20;97.70;;;;;;5036922;28;20140;-69
2022/09/11 05:41:11;;;;;;;14.93;8.50;;;16.20;97.60;;;;;;5033496;28;20370;-68
2022/09/11 05:43:39;;;;;;;13.80;7.63;;;16.30;97.60;;;;;;5034055;28;20025;-68
2022/09/11 05:46:06;;;;;;;13.13;7.53;;;16.30;97.70;;;;;;5038958;28;20489;-68
2022/09/11 05:48:35;;;;;;;14.10;7.57;;;16.30;97.90;;;;;;5042517;28;20400;-68
2022/09/11 05:51:08;;;;;;;12.90;7.57;;;16.40;97.90;;;;;;5038165;28;20032;-68
2022/09/11 05:53:34;;;;;;;14.40;7.63;;;16.40;97.90;;;;;;5042469;28;20060;-68
2022/09/11 05:56:11;;;;;;;14.32;8.60;;;16.40;98.20;;;;;;5038436;28;20029;-68
2022/09/11 05:58:38;;;;;;;21.13;8.87;;;16.50;98.00;;;;;;5027154;28;20135;-68
2022/09/11 06:01:10;;;;;;;16.75;8.52;;;16.50;98.00;;;;;;5025151;28;20112;-68
2022/09/11 06:03:38;;;;;;;19.65;9.50;;;16.50;98.00;;;;;;5028959;28;20079;-68
2022/09/11 06:06:06;;;;;;;20.77;10.50;;;16.50;98.00;;;;;;5036450;28;20072;-68
2022/09/11 06:08:33;;;;;;;21.40;9.70;;;16.60;98.00;;;;;;5034675;28;20874;-68
2022/09/11 06:11:01;;;;;;;15.27;8.38;;;16.60;97.80;;;;;;5033614;28;20666;-68
2022/09/11 06:13:32;;;;;;;22.92;10.27;;;16.70;97.90;;;;;;5030993;28;20467;-69
2022/09/11 06:16:04;;;;;;;17.13;8.52;;;16.70;97.90;;;;;;5030978;28;20036;-68
2022/09/11 06:18:31;;;;;;;19.15;9.05;;;16.80;97.90;;;;;;5038848;28;20098;-69
2022/09/11 06:21:05;;;;;;;19.40;9.48;;;16.80;97.90;;;;;;5028217;28;20029;-69
2022/09/11 06:23:40;;;;;;;18.35;10.07;;;16.80;97.90;;;;;;5036791;28;20044;-68
2022/09/11 06:26:11;;;;;;;18.55;8.85;;;16.80;97.80;;;;;;5038494;28;20044;-68
2022/09/11 06:28:40;;;;;;;21.98;10.15;;;16.90;97.80;;;;;;5039810;28;20390;-68
2022/09/11 06:31:10;;;;;;;23.10;10.00;;;16.90;97.70;;;;;;5035642;28;20037;-69
2022/09/11 06:33:38;;;;;;;23.25;10.80;;;16.90;97.70;;;;;;5039134;28;20033;-68
2022/09/11 06:36:06;;;;;;;19.27;9.98;;;16.90;97.60;;;;;;5031004;28;20686;-69
2022/09/11 06:38:32;;;;;;;21.55;10.77;;;17.00;97.60;;;;;;5033690;28;20047;-70
2022/09/11 06:41:05;;;;;;;24.00;11.52;;;17.00;97.70;;;;;;5027754;28;20030;-70
2022/09/11 06:43:34;;;;;;;19.42;10.77;;;17.00;97.70;;;;;;5038904;28;20033;-69
2022/09/11 06:46:05;;;;;;;21.08;11.43;;;17.00;97.60;;;;;;5036428;28;20032;-67
2022/09/11 06:48:35;;;;;;;20.52;10.85;;;17.10;97.70;;;;;;5024121;28;20127;-67
2022/09/11 06:51:05;;;;;;;20.00;11.55;;;17.10;97.60;;;;;;5025212;28;20041;-67
2022/09/11 06:53:32;;;;;;;28.85;13.80;;;17.20;97.70;;;;;;5037487;28;20671;-67
2022/09/11 06:56:02;;;;;;;21.40;11.30;;;17.20;97.50;;;;;;5036037;28;20448;-67
2022/09/11 06:58:30;;;;;;;23.30;10.30;;;17.30;97.50;;;;;;5034906;28;20043;-68
2022/09/11 07:01:04;;;;;;;20.27;11.13;;;17.30;97.40;;;;;;5026818;28;20064;-68
2022/09/11 07:03:31;;;;;;;22.75;12.35;;;17.40;97.50;;;;;;5047469;28;20148;-67
2022/09/11 07:05:59;;;;;;;19.27;11.30;;;17.50;97.30;;;;;;5026188;28;20136;-67
2022/09/11 07:08:26;;;;;;;20.35;11.50;;;17.60;97.00;;;;;;5049453;28;20058;-68
2022/09/11 07:10:52;;;;;;;19.10;10.85;;;17.70;96.80;;;;;;5031241;28;20024;-68
2022/09/11 07:13:19;;;;;;;17.80;10.40;;;17.80;96.60;;;;;;5031493;28;20072;-67
2022/09/11 07:15:48;;;;;;;17.63;10.85;;;17.80;96.50;;;;;;5030769;28;20025;-68
2022/09/11 07:18:15;;;;;;;19.70;11.85;;;17.90;96.40;;;;;;5029798;28;20030;-67
2022/09/11 07:20:40;;;;;;;18.40;11.80;;;18.00;96.30;;;;;;5039604;28;20543;-67
2022/09/11 07:23:07;;;;;;;18.13;10.80;;;18.00;96.00;;;;;;5036156;28;20029;-67
2022/09/11 07:25:39;;;;;;;19.00;10.60;;;18.10;96.00;;;;;;5038888;28;20021;-67
2022/09/11 07:28:06;;;;;;;20.85;12.38;;;18.20;95.80;;;;;;5033452;28;20039;-67
2022/09/11 07:30:32;;;;;;;22.85;12.35;;;18.20;95.50;;;;;;5042794;28;20025;-68
2022/09/11 07:32:58;;;;;;;23.55;12.18;;;18.30;94.70;;;;;;5036612;28;20032;-67
2022/09/11 07:35:24;;;;;;;19.90;9.68;;;18.20;94.70;;;;;;5036996;28;20025;-67
2022/09/11 07:37:52;;;;;;;20.65;12.23;;;18.20;94.80;;;;;;5036529;28;20025;-68
2022/09/11 07:40:22;;;;;;;19.48;11.07;;;18.20;95.00;;;;;;5040887;28;20029;-67
2022/09/11 07:42:49;;;;;;;18.30;11.25;;;18.30;95.00;;;;;;5041470;28;20029;-66
2022/09/11 07:45:16;;;;;;;20.20;11.45;;;18.30;95.00;;;;;;5037153;28;20041;-67
2022/09/11 07:47:42;;;;;;;17.70;10.48;;;18.20;95.00;;;;;;5038436;28;20028;-68
2022/09/11 07:50:09;;;;;;;20.70;12.18;;;18.30;95.00;;;;;;5034810;28;20075;-67
2022/09/11 07:52:35;;;;;;;21.13;10.88;;;18.30;95.00;;;;;;5037010;28;20072;-68
2022/09/11 07:55:03;;;;;;;19.75;10.70;;;18.30;94.90;;;;;;5035369;28;20038;-67
2022/09/11 07:57:32;;;;;;;17.85;10.48;;;18.40;95.00;;;;;;5037978;28;20079;-68
2022/09/11 08:00:03;;;;;;;19.65;11.57;;;18.40;94.90;;;;;;5040139;28;20029;-67
2022/09/11 08:02:34;;;;;;;19.10;11.50;;;18.40;94.90;;;;;;5039747;28;20102;-67
2022/09/11 08:05:01;;;;;;;22.25;12.82;;;18.40;94.90;;;;;;5035641;28;20041;-68
2022/09/11 08:07:27;;;;;;;19.20;11.38;;;18.40;94.70;;;;;;5036913;28;20056;-67
2022/09/11 08:09:53;;;;;;;23.10;12.05;;;18.50;94.90;;;;;;5037497;28;20028;-68
2022/09/11 08:12:19;;;;;;;20.75;12.50;;;18.60;95.00;;;;;;5036009;28;20495;-67
2022/09/11 08:14:45;;;;;;;17.92;11.02;;;18.70;94.90;;;;;;5034439;28;20061;-68
2022/09/11 08:17:18;;;;;;;18.67;11.43;;;18.80;95.00;;;;;;5022561;28;20675;-67
2022/09/11 08:19:44;;;;;;;21.83;10.82;;;19.10;94.40;;;;;;5043237;28;20037;-67
2022/09/11 08:22:11;;;;;;;20.95;11.30;;;19.30;94.20;;;;;;5038720;28;20083;-68
2022/09/11 08:24:42;;;;;;;16.85;10.30;;;19.60;93.20;;;;;;5043810;28;20031;-68
2022/09/11 08:27:09;;;;;;;12.93;9.63;;;19.70;92.50;;;;;;5036667;28;20030;-68
2022/09/11 08:29:39;;;;;;;17.45;10.50;;;19.80;92.30;;;;;;5038082;28;20786;-68
2022/09/11 08:32:05;;;;;;;16.77;10.27;;;19.90;91.90;;;;;;5033623;28;20028;-68
2022/09/11 08:34:32;;;;;;;15.80;10.35;;;19.90;91.50;;;;;;5039411;28;20374;-69
2022/09/11 08:36:58;;;;;;;17.95;11.30;;;20.00;91.50;;;;;;5042109;28;20021;-68
2022/09/11 08:39:26;;;;;;;18.52;10.73;;;20.00;91.50;;;;;;5036345;28;20083;-68
2022/09/11 08:42:08;;;;;;;14.38;9.95;;;19.90;91.40;;;;;;5032472;28;20052;-68
2022/09/11 08:44:55;;;;;;;15.80;10.52;;;19.90;91.40;;;;;;5041853;28;20120;-69
2022/09/11 08:47:49;;;;;;;17.70;10.63;;;19.80;91.30;;;;;;5037454;28;20048;-69
2022/09/11 08:50:43;;;;;;;16.25;10.73;;;19.70;91.40;;;;;;5035629;28;20033;-69
2022/09/11 08:53:15;;;;;;;15.80;10.43;;;19.60;91.50;;;;;;5048606;28;20033;-69
2022/09/11 08:55:46;;;;;;;18.33;11.32;;;19.60;91.60;;;;;;5041592;28;20033;-68
2022/09/11 08:58:37;;;;;;;17.10;10.95;;;19.60;91.60;;;;;;5039384;28;20091;-68
2022/09/11 09:01:12;;;;;;;15.35;9.65;;;19.60;91.80;;;;;;5038366;28;20029;-69
2022/09/11 09:03:52;;;;;;;16.63;10.75;;;19.50;91.70;;;;;;5042059;28;20017;-68
2022/09/11 09:06:27;;;;;;;18.35;10.77;;;19.50;91.70;;;;;;5035484;28;20080;-68
2022/09/11 09:09:13;;;;;;;15.32;9.40;;;19.40;91.60;;;;;;5033627;28;20124;-68
2022/09/11 09:11:57;;;;;;;17.60;11.63;;;19.40;91.70;;;;;;5038806;28;20037;-68
2022/09/11 09:14:49;;;;;;;18.15;10.85;;;19.40;91.90;;;;;;5041852;28;20071;-68
2022/09/11 09:17:25;;;;;;;17.40;10.63;;;19.50;92.00;;;;;;5041401;28;20116;-68
2022/09/11 09:20:15;;;;;;;21.60;12.63;;;19.50;92.40;;;;;;5039719;28;20039;-68
2022/09/11 09:22:42;;;;;;;21.42;12.00;;;19.60;92.10;;;;;;5037046;28;20021;-68
2022/09/11 09:25:12;;;;;;;16.92;10.95;;;19.80;91.90;;;;;;5035045;28;20414;-68
2022/09/11 09:27:46;;;;;;;20.67;12.00;;;19.80;91.50;;;;;;5035977;28;20083;-68
2022/09/11 09:30:20;;;;;;;17.13;10.95;;;19.90;91.00;;;;;;5033351;28;20064;-68
2022/09/11 09:32:58;;;;;;;14.65;9.73;;;19.90;91.30;;;;;;5042604;28;20052;-68
2022/09/11 09:35:53;;;;;;;16.65;11.02;;;20.10;91.30;;;;;;5040483;28;20035;-68
2022/09/11 09:38:27;;;;;;;18.88;11.18;;;20.30;90.90;;;;;;5033290;28;20752;-69
2022/09/11 09:41:09;;;;;;;16.23;11.13;;;20.40;90.60;;;;;;5037285;28;20021;-69
2022/09/11 09:43:44;;;;;;;17.23;10.75;;;20.50;90.20;;;;;;5042205;28;20037;-68
2022/09/11 09:46:42;;;;;;;18.95;10.68;;;20.50;90.20;;;;;;5035018;28;20112;-68
2022/09/11 09:49:16;;;;;;;17.83;10.70;;;20.60;89.80;;;;;;5033550;28;20573;-68
2022/09/11 09:51:42;;;;;;;15.90;10.52;;;20.70;89.80;;;;;;5041976;28;20592;-69
2022/09/11 09:54:14;;;;;;;16.80;10.93;;;20.90;89.60;;;;;;5041761;28;20067;-68
2022/09/11 09:56:43;;;;;;;16.35;11.38;;;21.00;89.20;;;;;;5041126;28;20163;-69
2022/09/11 09:59:17;;;;;;;16.02;10.90;;;21.10;88.70;;;;;;5037385;28;20029;-70
2022/09/11 10:01:43;;;;;;;20.08;10.55;;;21.20;87.20;;;;;;5036722;28;20036;-69
2022/09/11 10:04:26;;;;;;;14.07;9.85;;;21.30;87.40;;;;;;5034847;28;20793;-69
2022/09/11 10:07:04;;;;;;;13.60;8.43;;;21.50;86.50;;;;;;5032280;28;20060;-69
2022/09/11 10:09:30;;;;;;;12.80;8.05;;;21.70;84.70;;;;;;5035916;28;20116;-69
2022/09/11 10:12:04;;;;;;;13.82;9.40;;;21.80;83.70;;;;;;5041562;28;20028;-69
2022/09/11 10:14:36;;;;;;;14.93;8.90;;;21.90;83.00;;;;;;5039735;28;20087;-69
2022/09/11 10:17:02;;;;;;;15.38;8.85;;;22.10;82.00;;;;;;5037448;28;20560;-68
2022/09/11 10:19:42;;;;;;;15.27;8.93;;;22.10;82.90;;;;;;5041469;28;20059;-69
2022/09/11 10:22:29;;;;;;;14.05;8.25;;;22.20;83.30;;;;;;5049555;28;20124;-69
2022/09/11 10:25:02;;;;;;;12.52;8.10;;;22.20;81.10;;;;;;5036078;28;20037;-69
2022/09/11 10:27:33;;;;;;;11.50;7.82;;;22.10;81.10;;;;;;5034750;28;20033;-69
2022/09/11 10:30:00;;;;;;;10.30;6.30;;;22.10;81.30;;;;;;5038487;28;20075;-69
2022/09/11 10:32:27;;;;;;;11.18;7.18;;;22.20;81.30;;;;;;5036889;28;20639;-69
2022/09/11 10:34:54;;;;;;;10.50;7.18;;;22.20;80.10;;;;;;5038817;28;20094;-69
2022/09/11 10:37:27;;;;;;;12.88;7.28;;;22.30;80.10;;;;;;5037644;28;20670;-69
2022/09/11 10:40:02;;;;;;;8.77;6.68;;;22.40;80.30;;;;;;5038259;28;20111;-68
2022/09/11 10:42:30;;;;;;;10.37;5.97;;;22.40;80.00;;;;;;5035306;28;20495;-69
2022/09/11 10:45:09;;;;;;;9.48;5.70;;;22.50;79.40;;;;;;5032137;28;20643;-69
2022/09/11 10:47:36;;;;;;;9.10;6.40;;;22.40;79.80;;;;;;5039355;28;20025;-69
2022/09/11 10:50:16;;;;;;;11.10;7.35;;;22.30;79.60;;;;;;5039824;28;20048;-70
2022/09/11 10:52:57;;;;;;;9.45;6.78;;;22.30;79.40;;;;;;5039674;28;20708;-70
2022/09/11 10:55:40;;;;;;;7.65;5.65;;;22.30;79.20;;;;;;5040064;28;20024;-68
2022/09/11 10:58:17;;;;;;;9.50;6.88;;;22.10;79.60;;;;;;5037530;28;20053;-69
2022/09/11 11:00:43;;;;;;;8.25;5.30;;;22.00;80.00;;;;;;5035634;28;20035;-69
2022/09/11 11:03:11;;;;;;;8.32;5.93;;;21.80;80.60;;;;;;5032368;28;20041;-70
2022/09/11 11:05:43;;;;;;;8.13;5.60;;;21.70;81.50;;;;;;5034176;28;20115;-68
2022/09/11 11:08:10;;;;;;;9.88;5.88;;;21.50;81.50;;;;;;5040932;28;20060;-68
2022/09/11 11:11:02;;;;;;;7.63;6.05;;;21.30;81.60;;;;;;5040311;28;20036;-69
2022/09/11 11:13:46;;;;;;;8.55;5.43;;;21.30;82.90;;;;;;5040766;28;20439;-70
2022/09/11 11:16:16;;;;;;;9.70;5.97;;;21.40;82.40;;;;;;5035872;28;20053;-69
2022/09/11 11:19:19;;;;;;;8.00;5.40;;;21.50;82.20;;;;;;5036710;28;20378;-69
2022/09/11 11:22:06;;;;;;;8.63;6.03;;;21.60;81.80;;;;;;5034758;28;20033;-69
2022/09/11 11:24:40;;;;;;;7.47;5.30;;;21.90;79.80;;;;;;5031141;28;20379;-69
2022/09/11 11:27:39;;;;;;;6.15;4.70;;;22.10;79.70;;;;;;5040422;28;20079;-69
2022/09/11 11:30:10;;;;;;;6.78;4.63;;;22.40;78.70;;;;;;5037452;28;20020;-70
2022/09/11 11:32:45;;;;;;;9.38;4.82;;;22.60;75.80;;;;;;5038230;28;20037;-69
2022/09/11 11:35:25;;;;;;;8.57;4.65;;;22.70;75.90;;;;;;5035178;28;20791;-69
2022/09/11 11:38:01;;;;;;;6.20;4.03;;;22.80;75.00;;;;;;5034667;28;20032;-70
2022/09/11 11:40:30;;;;;;;3.80;3.25;;;22.80;74.50;;;;;;5033564;28;20040;-69
2022/09/11 11:43:03;;;;;;;4.60;3.67;;;22.70;73.50;;;;;;5034586;28;20771;-70
2022/09/11 11:45:35;;;;;;;5.18;3.65;;;22.60;74.60;;;;;;5037561;28;20033;-69
2022/09/11 11:48:08;;;;;;;5.75;3.20;;;22.60;74.20;;;;;;5038398;28;20040;-70
2022/09/11 11:50:40;;;;;;;7.35;3.95;;;22.70;73.80;;;;;;5038444;28;20044;-68
2022/09/11 11:53:34;;;;;;;4.82;4.00;;;22.70;73.50;;;;;;5035250;28;20038;-69
2022/09/11 11:56:27;;;;;;;5.32;4.30;;;22.80;72.70;;;;;;5038016;28;20136;-70
2022/09/11 11:59:11;;;;;;;6.47;3.28;;;22.80;73.00;;;;;;5034815;28;20065;-68
2022/09/11 12:01:49;;;;;;;4.68;2.70;;;22.80;71.60;;;;;;5034693;28;20116;-70
2022/09/11 12:04:33;;;;;;;4.13;2.80;;;22.80;68.10;;;;;;5039753;28;20115;-70
2022/09/11 12:07:01;;;;;;;4.03;3.08;;;22.70;69.70;;;;;;5036912;28;20048;-69
2022/09/11 12:09:30;;;;;;;4.75;3.13;;;22.80;71.30;;;;;;5036080;28;20171;-69
2022/09/11 12:12:04;;;;;;;5.63;3.33;;;22.90;70.90;;;;;;5034416;28;20032;-70
2022/09/11 12:14:32;;;;;;;5.20;3.22;;;23.00;71.60;;;;;;5035662;28;20025;-70
2022/09/11 12:17:21;;;;;;;5.35;3.30;;;23.10;72.20;;;;;;5035874;28;20037;-69
2022/09/11 12:20:29;;;;;;;5.88;3.88;;;23.10;71.10;;;;;;5033841;28;20664;-69
2022/09/11 12:22:55;;;;;;;3.97;3.15;;;23.20;69.80;;;;;;5021842;28;20780;-69
2022/09/11 12:25:20;;;;;;;4.90;3.40;;;23.20;70.70;;;;;;5038744;28;20056;-71
2022/09/11 12:27:54;;;;;;;6.78;3.75;;;23.30;69.00;;;;;;5042302;28;20087;-70
2022/09/11 12:30:25;;;;;;;4.25;3.58;;;23.40;70.50;;;;;;5040388;28;20767;-69
2022/09/11 12:32:58;;;;;;;5.32;3.40;;;23.50;68.70;;;;;;5039874;28;20727;-69
2022/09/11 12:35:40;;;;;;;4.60;3.50;;;23.40;68.40;;;;;;5038575;28;20078;-69
2022/09/11 12:38:06;;;;;;;5.35;3.22;;;23.40;69.60;;;;;;5034401;28;20040;-69
2022/09/11 12:41:06;;;;;;;5.60;3.67;;;23.40;70.30;;;;;;5040634;28;20049;-69
2022/09/11 12:43:34;;;;;;;3.78;3.30;;;23.40;70.60;;;;;;5039523;28;20044;-71
2022/09/11 12:46:33;;;;;;;6.40;3.55;;;23.60;68.60;;;;;;5040577;28;20088;-70
2022/09/11 12:49:09;;;;;;;4.07;3.15;;;23.70;69.20;;;;;;5040056;28;20061;-70
2022/09/11 12:51:38;;;;;;;;;;;23.60;69.20;;;;;;5042356;28;20040;-70
2022/09/11 12:54:16;;;;;;;4.10;3.10;;;23.60;68.40;;;;;;5041316;28;20007;-70
2022/09/11 12:56:49;;;;;;;3.42;3.00;;;23.60;69.20;;;;;;5037799;28;20468;-69
2022/09/11 12:59:29;;;;;;;2.83;2.55;;;23.70;67.70;;;;;;5042890;28;20041;-69
2022/09/11 13:01:56;;;;;;;3.80;2.60;;;23.80;67.50;;;;;;5040317;28;20036;-69
2022/09/11 13:04:25;;;;;;;4.18;2.97;;;23.80;65.10;;;;;;5042123;28;20028;-70
2022/09/11 13:07:02;;;;;;;3.88;2.83;;;23.70;66.20;;;;;;5040844;28;20178;-71
2022/09/11 13:09:30;;;;;;;3.97;2.60;;;23.60;66.20;;;;;;5038648;28;20025;-70